Time;durP1;ratioP1;P1;durP2;ratioP2;P2;SDS_P1;SDS_P2;PMS_P1;PMS_P2;Temp;Humidity;BMP_temperature;BMP_pressure;BME280_temperature;BME280_humidity;BME280_pressure;Samples;Min_cycle;Max_cycle;Signal;HPM_P1;HPM_P2
2022/04/26 03:37:25;;;;;;;21.05;8.88;;;;;;;13.31;100.00;100169.59;4918045;29;20044;-85
2022/04/26 03:39:50;;;;;;;18.60;8.00;;;;;;;13.38;100.00;100170.47;4900523;29;20115;-85
2022/04/26 03:42:16;;;;;;;15.88;8.13;;;;;;;13.39;100.00;100170.28;4918083;29;20063;-84
2022/04/26 03:44:44;;;;;;;19.65;8.68;;;;;;;13.49;100.00;100172.63;4918399;29;20522;-85
2022/04/26 03:47:10;;;;;;;14.63;9.05;;;;;;;13.44;100.00;100169.72;4917329;29;20498;-84
2022/04/26 03:49:37;;;;;;;18.70;10.32;;;;;;;13.38;100.00;100171.31;4918545;29;20091;-83
2022/04/26 03:52:03;;;;;;;21.73;10.63;;;;;;;13.18;100.00;100164.13;4918157;29;20495;-86
2022/04/26 03:54:29;;;;;;;15.75;10.40;;;;;;;13.18;100.00;100169.44;4900876;29;20103;-87
2022/04/26 03:56:55;;;;;;;22.10;10.60;;;;;;;13.25;100.00;100170.34;4917900;29;20428;-85
2022/04/26 03:59:20;;;;;;;24.50;10.82;;;;;;;13.21;100.00;100169.06;4918081;29;20044;-90
2022/04/26 04:01:47;;;;;;;21.23;10.65;;;;;;;13.21;100.00;100164.56;4922204;29;20202;-86
2022/04/26 04:04:12;;;;;;;16.38;8.95;;;;;;;13.21;100.00;100171.72;4921730;29;20131;-90
2022/04/26 04:06:38;;;;;;;17.95;9.95;;;;;;;13.10;100.00;100172.19;4917678;29;20123;-90
2022/04/26 04:09:04;;;;;;;18.05;9.48;;;;;;;13.16;100.00;100171.44;4921227;29;20095;-89
2022/04/26 04:11:30;;;;;;;16.90;9.38;;;;;;;12.97;100.00;100167.53;4922788;29;20123;-89
2022/04/26 04:13:56;;;;;;;19.60;9.88;;;;;;;12.98;100.00;100173.66;4920411;29;20123;-86
2022/04/26 04:16:22;;;;;;;20.40;9.45;;;;;;;12.99;100.00;100180.66;4919528;29;20040;-87
2022/04/26 04:21:32;;;;;;;22.25;9.90;;;;;;;12.72;100.00;100179.47;4916189;29;20399;-85
2022/04/26 04:23:58;;;;;;;19.30;9.93;;;;;;;12.67;100.00;100180.00;4918156;29;20035;-92
2022/04/26 04:26:24;;;;;;;20.42;11.15;;;;;;;12.57;100.00;100190.09;4901742;29;20068;-89
2022/04/26 04:28:50;;;;;;;18.13;10.30;;;;;;;12.68;100.00;100189.66;4918942;29;20036;-90
2022/04/26 04:31:16;;;;;;;24.45;10.50;;;;;;;12.57;100.00;100184.78;4917123;29;20052;-86
2022/04/26 04:33:44;;;;;;;16.50;9.70;;;;;;;12.76;100.00;100186.88;4886805;29;20518;-89
2022/04/26 04:36:10;;;;;;;24.27;10.65;;;;;;;12.70;100.00;100192.94;4920677;29;20040;-92
2022/04/26 04:38:35;;;;;;;18.67;11.57;;;;;;;12.60;100.00;100192.38;4907105;29;20039;-92
2022/04/26 04:41:10;;;;;;;14.68;9.75;;;;;;;12.80;100.00;100185.50;4921912;29;20131;-92
2022/04/26 04:43:58;;;;;;;18.52;10.23;;;;;;;12.96;100.00;100192.47;4921944;29;20107;-88
2022/04/26 04:46:24;;;;;;;22.45;10.35;;;;;;;12.95;100.00;100202.28;4939798;28;20142;-90
2022/04/26 04:48:49;;;;;;;21.63;11.80;;;;;;;13.07;100.00;100201.81;4929974;29;20508;-91
2022/04/26 04:51:16;;;;;;;21.13;11.77;;;;;;;13.05;100.00;100212.66;4921381;29;20048;-88
2022/04/26 04:53:41;;;;;;;19.77;12.07;;;;;;;12.73;100.00;100202.38;4904415;29;20040;-84
2022/04/26 04:56:10;;;;;;;24.02;13.88;;;;;;;12.59;100.00;100204.06;4920905;29;20122;-83
2022/04/26 04:58:37;;;;;;;19.50;11.88;;;;;;;12.43;100.00;100201.53;4920312;29;20043;-84
2022/04/26 05:01:02;;;;;;;23.83;14.23;;;;;;;12.46;100.00;100205.69;4920848;29;20040;-84
2022/04/26 05:03:28;;;;;;;24.17;13.25;;;;;;;12.54;100.00;100209.06;4923456;29;20079;-83
2022/04/26 05:05:53;;;;;;;28.73;14.07;;;;;;;12.83;100.00;100210.91;4917428;29;20044;-82
2022/04/26 05:08:19;;;;;;;25.33;14.88;;;;;;;12.84;100.00;100210.75;4920984;29;20118;-86
2022/04/26 05:10:45;;;;;;;29.17;14.48;;;;;;;12.82;100.00;100207.44;4924311;29;20047;-85
2022/04/26 05:13:10;;;;;;;20.58;13.88;;;;;;;12.80;100.00;100209.44;4921405;29;20036;-87
2022/04/26 05:15:38;;;;;;;28.15;15.13;;;;;;;12.78;100.00;100205.31;4940145;29;20042;-84
2022/04/26 05:18:05;;;;;;;18.95;15.13;;;;;;;12.62;100.00;100201.03;4939503;29;20070;-85
2022/04/26 05:20:31;;;;;;;26.33;15.85;;;;;;;12.68;100.00;100205.59;4938918;29;20046;-82
2022/04/26 05:25:41;;;;;;;25.23;16.05;;;;;;;12.64;100.00;100204.31;4936079;29;20032;-83
2022/04/26 05:28:07;;;;;;;25.73;16.98;;;;;;;12.61;100.00;100211.81;4929613;29;20123;-80
2022/04/26 05:30:33;;;;;;;25.80;16.83;;;;;;;12.67;100.00;100211.91;4935263;29;20040;-83
2022/04/26 05:32:58;;;;;;;31.20;17.17;;;;;;;12.71;100.00;100207.91;4932990;29;20036;-83
2022/04/26 05:35:24;;;;;;;30.10;16.90;;;;;;;12.59;100.00;100206.72;4905365;29;20103;-84
2022/04/26 05:37:50;;;;;;;29.02;17.77;;;;;;;12.61;100.00;100217.97;4920304;29;20147;-84
2022/04/26 05:40:18;;;;;;;29.83;18.13;;;;;;;12.67;100.00;100211.91;4920478;29;20033;-84
2022/04/26 05:42:43;;;;;;;30.48;18.08;;;;;;;12.60;100.00;100211.00;4920067;29;20051;-82
2022/04/26 05:45:09;;;;;;;33.30;18.77;;;;;;;12.73;100.00;100213.00;4920042;29;20036;-85
2022/04/26 05:47:40;;;;;;;30.52;16.60;;;;;;;12.96;100.00;100214.56;4902430;29;20051;-84
2022/04/26 05:50:07;;;;;;;33.25;17.92;;;;;;;12.95;100.00;100215.59;4919517;29;20040;-85
2022/04/26 05:52:32;;;;;;;31.73;17.77;;;;;;;12.80;100.00;100217.44;4919697;29;20032;-84
2022/04/26 05:54:58;;;;;;;25.60;17.88;;;;;;;12.91;100.00;100222.28;4919442;29;20048;-83
2022/04/26 05:57:24;;;;;;;32.38;18.27;;;;;;;12.89;100.00;100223.50;4919392;29;20119;-84
2022/04/26 05:59:49;;;;;;;28.38;18.50;;;;;;;12.92;100.00;100223.13;4902560;29;20024;-82
2022/04/26 06:02:15;;;;;;;30.20;16.98;;;;;;;12.98;100.00;100221.56;4919008;29;20056;-85
2022/04/26 06:04:40;;;;;;;25.60;17.30;;;;;;;12.85;100.00;100220.38;4919387;29;20079;-82
2022/04/26 06:07:06;;;;;;;32.00;17.75;;;;;;;12.81;100.00;100215.59;4918287;29;20048;-84
2022/04/26 06:09:31;;;;;;;30.50;17.35;;;;;;;13.02;100.00;100212.19;4929174;28;20044;-84
2022/04/26 06:11:57;;;;;;;30.40;18.27;;;;;;;13.06;100.00;100218.81;4936977;28;20028;-81
2022/04/26 06:14:23;;;;;;;33.63;17.23;;;;;;;13.06;100.00;100224.13;4927459;29;20043;-82
2022/04/26 06:16:49;;;;;;;29.70;17.83;;;;;;;12.93;100.00;100225.59;4936101;29;20036;-83
2022/04/26 06:19:15;;;;;;;25.55;16.75;;;;;;;12.91;100.00;100224.94;4934977;28;20068;-84
2022/04/26 06:21:40;;;;;;;36.88;16.13;;;;;;;13.07;100.00;100220.44;4939652;29;20449;-85
2022/04/26 06:24:06;;;;;;;27.52;16.63;;;;;;;13.12;100.00;100220.75;4937612;29;20032;-82
2022/04/26 06:26:31;;;;;;;28.52;15.00;;;;;;;13.37;100.00;100219.41;4921516;29;20040;-83
2022/04/26 06:28:57;;;;;;;24.10;16.75;;;;;;;13.32;100.00;100227.13;4920065;29;20123;-86
2022/04/26 06:31:22;;;;;;;24.63;15.98;;;;;;;13.18;100.00;100220.81;4919919;29;20032;-84
2022/04/26 06:33:48;;;;;;;31.95;17.17;;;;;;;13.07;100.00;100215.09;4920493;29;20498;-84
2022/04/26 06:36:13;;;;;;;24.42;15.40;;;;;;;13.35;100.00;100211.63;4920315;29;20036;-84
2022/04/26 06:38:39;;;;;;;32.88;16.55;;;;;;;13.33;100.00;100220.78;4919590;29;20428;-85
2022/04/26 06:41:05;;;;;;;26.88;15.35;;;;;;;13.61;100.00;100224.38;4919417;29;20032;-82
2022/04/26 06:43:33;;;;;;;24.85;14.70;;;;;;;13.52;100.00;100222.03;4919107;29;20028;-84
2022/04/26 06:45:59;;;;;;;28.02;16.10;;;;;;;13.66;100.00;100229.97;4919056;29;20050;-86
2022/04/26 06:48:27;;;;;;;34.03;17.13;;;;;;;13.51;100.00;100229.19;4919330;29;20032;-84
2022/04/26 06:50:55;;;;;;;27.13;15.82;;;;;;;13.57;100.00;100227.59;4919361;29;20040;-85
2022/04/26 06:53:21;;;;;;;26.95;15.40;;;;;;;13.53;100.00;100219.16;4918458;29;20131;-81
2022/04/26 06:55:46;;;;;;;27.23;16.33;;;;;;;13.62;100.00;100223.34;4918414;29;20060;-84
2022/04/26 06:58:12;;;;;;;28.48;15.07;;;;;;;13.58;100.00;100215.94;4895520;29;20127;-82
2022/04/26 07:00:38;;;;;;;28.67;14.85;;;;;;;13.82;100.00;100221.72;4911194;29;20039;-84
2022/04/26 07:03:04;;;;;;;26.92;14.20;;;;;;;14.07;100.00;100226.66;4923122;29;20493;-85
2022/04/26 07:05:30;;;;;;;24.73;13.25;;;;;;;14.25;100.00;100216.38;4907223;29;20047;-81
2022/04/26 07:07:55;;;;;;;28.48;13.27;;;;;;;14.27;100.00;100225.00;4910707;29;20035;-83
2022/04/26 07:10:22;;;;;;;23.38;12.32;;;;;;;14.38;100.00;100221.84;4927244;29;20095;-88
2022/04/26 07:12:48;;;;;;;20.77;10.63;;;;;;;14.54;100.00;100210.88;4917122;29;20546;-86
2022/04/26 07:15:13;;;;;;;31.75;10.73;;;;;;;14.94;100.00;100220.75;4923076;29;20099;-83
2022/04/26 07:17:43;;;;;;;19.73;10.57;;;;;;;15.25;100.00;100224.78;4925920;29;20032;-82
2022/04/26 07:20:09;;;;;;;20.17;10.93;;;;;;;15.26;100.00;100221.94;4920474;29;20052;-84
2022/04/26 07:22:37;;;;;;;24.13;11.38;;;;;;;15.22;100.00;100227.84;4923035;29;20036;-82
2022/04/26 07:25:05;;;;;;;22.30;11.82;;;;;;;15.50;100.00;100223.28;4924204;29;20480;-85
2022/04/26 07:27:31;;;;;;;20.48;11.85;;;;;;;15.48;100.00;100222.63;4908639;29;20064;-85
2022/04/26 07:29:57;;;;;;;21.55;10.80;;;;;;;16.11;100.00;100221.31;4907525;29;20032;-84
2022/04/26 07:35:12;;;;;;;24.10;9.55;;;;;;;17.17;99.00;100232.72;4900413;29;20159;-84
2022/04/26 07:37:39;;;;;;;14.35;8.95;;;;;;;17.02;99.54;100230.28;4908005;29;20103;-84
2022/04/26 07:40:05;;;;;;;17.90;8.45;;;;;;;17.11;98.54;100233.53;4904961;29;20672;-83
2022/04/26 07:42:31;;;;;;;17.88;7.65;;;;;;;17.33;95.05;100226.88;4924303;29;20087;-84
2022/04/26 07:44:57;;;;;;;15.68;8.32;;;;;;;17.44;94.73;100228.88;4915649;29;20084;-88
2022/04/26 07:47:24;;;;;;;19.75;9.75;;;;;;;17.17;96.99;100235.41;4900154;29;20240;-87
2022/04/26 07:49:52;;;;;;;17.90;10.32;;;;;;;16.71;100.00;100228.28;4916828;29;20044;-86
2022/04/26 07:52:18;;;;;;;18.83;10.80;;;;;;;16.82;100.00;100234.88;4933534;29;20051;-86
2022/04/26 07:54:46;;;;;;;17.15;10.32;;;;;;;16.94;99.30;100228.66;4936801;29;20059;-86
2022/04/26 07:57:12;;;;;;;21.25;10.45;;;;;;;17.74;96.36;100235.34;4937308;29;20043;-85
2022/04/26 07:59:38;;;;;;;22.10;10.98;;;;;;;18.46;92.52;100244.72;4924622;29;20123;-85
2022/04/26 08:02:08;;;;;;;20.73;10.38;;;;;;;18.47;90.46;100240.97;4916438;29;20529;-82
2022/04/26 08:04:33;;;;;;;16.70;9.57;;;;;;;18.30;91.34;100245.25;4917564;29;20036;-88
2022/04/26 08:06:59;;;;;;;23.30;11.07;;;;;;;18.47;92.41;100235.59;4908491;29;20103;-83
2022/04/26 08:09:24;;;;;;;20.08;10.25;;;;;;;18.68;89.19;100248.66;4916349;29;20032;-85
2022/04/26 08:11:50;;;;;;;23.42;10.32;;;;;;;19.37;86.72;100236.72;4916821;29;20476;-88
2022/04/26 08:14:16;;;;;;;23.52;9.15;;;;;;;19.23;82.81;100244.13;4915844;29;20035;-83
2022/04/26 08:16:41;;;;;;;14.20;8.02;;;;;;;19.04;82.40;100254.06;4926198;29;20059;-86
2022/04/26 08:19:10;;;;;;;11.82;6.03;;;;;;;18.94;80.08;100251.09;4915996;29;20039;-84
2022/04/26 08:21:36;;;;;;;13.02;6.25;;;;;;;18.78;80.50;100248.97;4916727;29;20059;-83
2022/04/26 08:29:29;;;;;;;6.82;3.45;;;;;;;19.34;75.25;100256.00;4921915;29;20048;-87
2022/04/26 08:31:56;;;;;;;6.72;3.00;;;;;;;20.07;72.01;100253.97;4918009;29;20040;-85
2022/04/26 08:34:22;;;;;;;7.28;2.40;;;;;;;20.53;66.88;100261.34;4915742;29;20025;-85
2022/04/26 08:36:51;;;;;;;8.35;1.90;;;;;;;20.75;66.25;100262.38;4896968;29;20040;-87
2022/04/26 08:39:16;;;;;;;5.30;1.88;;;;;;;20.33;64.47;100263.53;4914549;29;20036;-86
2022/04/26 08:41:42;;;;;;;9.52;1.80;;;;;;;19.81;66.82;100268.66;4926359;29;20494;-84
2022/04/26 08:44:11;;;;;;;6.20;2.05;;;;;;;20.31;66.36;100265.66;4918024;29;20411;-84
2022/04/26 08:52:07;;;;;;;10.57;2.40;;;;;;;19.28;72.67;100254.22;4920715;29;20036;-85
2022/04/26 08:54:34;;;;;;;6.85;1.83;;;;;;;19.13;71.50;100256.44;4928635;29;20032;-84
2022/04/26 08:57:00;;;;;;;7.38;1.75;;;;;;;19.01;71.61;100265.25;4942093;29;20094;-83
2022/04/26 08:59:27;;;;;;;9.38;1.80;;;;;;;18.80;71.12;100268.38;4919856;29;20058;-83
2022/04/26 09:02:21;;;;;;;4.40;1.92;;;;;;;19.23;70.59;100256.75;4915412;29;20107;-83
2022/04/26 09:04:52;;;;;;;6.38;2.35;;;;;;;20.59;68.20;100271.16;4920242;29;20496;-85
2022/04/26 09:07:34;;;;;;;8.25;2.00;;;;;;;20.84;61.54;100261.00;4915396;29;20131;-84
2022/04/26 09:10:04;;;;;;;5.35;1.85;;;;;;;20.38;64.58;100263.69;4904889;29;20036;-82
2022/04/26 09:12:30;;;;;;;6.68;2.03;;;;;;;20.18;65.74;100268.53;4915786;29;20487;-85
2022/04/26 09:14:55;;;;;;;5.63;1.80;;;;;;;20.25;63.63;100267.34;4909206;29;20036;-85
2022/04/26 09:17:21;;;;;;;6.25;1.80;;;;;;;19.91;63.00;100262.72;4919879;29;20043;-83
2022/04/26 09:19:55;;;;;;;5.43;1.95;;;;;;;19.58;64.62;100265.84;4919639;29;20044;-84
2022/04/26 09:22:26;;;;;;;9.85;2.38;;;;;;;19.60;64.21;100263.75;4927668;28;20044;-84
2022/04/26 09:25:07;;;;;;;6.90;2.20;;;;;;;19.38;64.47;100262.56;4943176;28;20061;-83
2022/04/26 09:27:40;;;;;;;6.00;2.22;;;;;;;19.17;65.25;100268.38;4932003;28;20079;-83
2022/04/26 09:30:13;;;;;;;4.95;1.73;;;;;;;18.96;65.84;100272.31;4924750;29;20055;-84
2022/04/26 09:32:49;;;;;;;11.60;2.05;;;;;;;18.86;65.95;100267.47;4916563;29;20063;-84
2022/04/26 09:35:19;;;;;;;4.97;1.65;;;;;;;19.00;65.79;100271.66;4900517;29;20060;-85
2022/04/26 09:37:45;;;;;;;12.48;2.08;;;;;;;18.75;67.09;100260.16;4912278;29;20036;-84
2022/04/26 09:40:11;;;;;;;7.13;2.33;;;;;;;18.91;66.94;100262.28;4935265;29;20095;-84
2022/04/26 09:42:37;;;;;;;7.57;2.00;;;;;;;18.78;66.58;100264.25;4931626;29;20036;-83
2022/04/26 09:45:07;;;;;;;7.45;1.80;;;;;;;18.87;65.91;100274.50;4927848;29;20067;-86
2022/04/26 09:47:39;;;;;;;3.90;1.92;;;;;;;18.78;65.83;100269.63;4919940;29;20510;-84
2022/04/26 09:50:12;;;;;;;8.75;2.25;;;;;;;18.93;64.97;100262.84;4918746;29;20055;-84
2022/04/26 09:52:38;;;;;;;7.40;1.30;;;;;;;19.22;62.79;100257.81;4923707;29;20063;-84
2022/04/26 09:55:06;;;;;;;6.47;1.77;;;;;;;19.50;62.55;100266.16;4919462;29;20083;-83
2022/04/26 09:57:33;;;;;;;6.00;2.25;;;;;;;19.49;61.67;100259.97;4918518;29;20109;-84
2022/04/26 10:00:00;;;;;;;5.80;1.60;;;;;;;19.32;62.74;100266.16;4919748;29;20050;-84
2022/04/26 10:02:35;;;;;;;6.95;1.55;;;;;;;19.30;63.96;100268.22;4918428;29;20039;-84
2022/04/26 10:05:06;;;;;;;7.65;1.80;;;;;;;19.11;65.08;100270.13;4920019;29;20036;-84
2022/04/26 10:07:43;;;;;;;9.80;1.75;;;;;;;19.01;65.57;100270.63;4920593;29;20044;-85
2022/04/26 10:10:09;;;;;;;3.03;1.35;;;;;;;19.41;63.97;100264.84;4922285;29;20157;-85
2022/04/26 10:12:36;;;;;;;5.47;1.90;;;;;;;19.46;64.93;100262.28;4920993;29;20174;-86
2022/04/26 10:15:03;;;;;;;6.80;1.38;;;;;;;19.68;62.31;100260.75;4922667;29;20125;-84
2022/04/26 10:17:32;;;;;;;6.45;1.65;;;;;;;20.19;60.10;100259.38;4934953;29;20048;-84
2022/04/26 10:20:01;;;;;;;3.20;1.33;;;;;;;21.17;58.82;100264.97;4929619;29;20527;-89
2022/04/26 10:22:52;;;;;;;3.50;1.30;;;;;;;21.70;57.25;100264.69;4925729;29;20064;-83
2022/04/26 10:25:21;;;;;;;4.45;1.35;;;;;;;21.65;57.20;100262.72;4920145;29;20052;-81
2022/04/26 10:28:27;;;;;;;5.25;1.40;;;;;;;22.60;52.80;100276.28;4920437;29;20075;-87
2022/04/26 10:30:55;;;;;;;4.90;1.65;;;;;;;22.53;51.31;100275.63;4905751;29;20500;-84
2022/04/26 10:33:40;;;;;;;5.53;2.42;;;;;;;22.97;50.76;100274.69;4920676;29;20028;-86
2022/04/26 10:36:31;;;;;;;4.05;2.17;;;;;;;23.54;48.87;100267.09;4920291;29;20039;-83
2022/04/26 10:39:22;;;;;;;3.10;1.40;;;;;;;23.05;50.46;100279.69;4920930;29;20096;-87
2022/04/26 10:41:48;;;;;;;4.03;2.10;;;;;;;22.54;51.98;100277.25;4925443;29;20534;-83
2022/04/26 10:44:15;;;;;;;2.28;1.10;;;;;;;22.17;51.39;100272.34;4946114;29;20043;-93
2022/04/26 10:46:50;;;;;;;3.67;0.90;;;;;;;21.82;51.79;100260.88;4945792;29;20040;-87
2022/04/26 10:49:50;;;;;;;;;;;;;;;;;;;;;
2022/04/26 10:52:26;;;;;;;5.53;1.05;;;;;;;20.53;55.85;100259.47;4887518;29;20076;-90
2022/04/26 10:54:55;;;;;;;2.03;0.82;;;;;;;20.71;56.49;100250.47;4928144;29;20072;-88
2022/04/26 10:57:30;;;;;;;2.28;0.80;;;;;;;21.22;53.53;100252.41;4931894;29;20024;-89
2022/04/26 11:03:56;;;;;;;7.57;3.63;;;;;;;21.79;53.39;100264.06;4876499;29;20049;-87
2022/04/26 11:09:18;;;;;;;2.25;0.82;;;;;;;23.29;48.22;100258.66;3696345;27;20048;-85
2022/04/26 11:15:19;;;;;;;1.55;0.75;;;;;;;24.21;45.55;100255.88;5494221;23;20068;-86
2022/04/26 11:17:51;;;;;;;2.85;0.88;;;;;;;24.09;45.98;100264.16;4924470;29;20063;-82
2022/04/26 11:20:20;;;;;;;2.75;1.02;;;;;;;23.00;47.80;100259.91;4909735;29;20104;-82
2022/04/26 11:22:55;;;;;;;4.32;1.13;;;;;;;22.56;47.77;100264.34;4903842;29;20515;-86
2022/04/26 11:28:14;;;;;;;3.67;0.88;;;;;;;21.57;50.78;100255.03;4926113;29;20044;-88
2022/04/26 11:30:52;;;;;;;4.18;1.00;;;;;;;21.26;51.42;100233.88;4925095;29;20123;-88
2022/04/26 11:33:22;;;;;;;3.28;1.38;;;;;;;21.34;52.00;100244.31;4890240;29;20048;-88
2022/04/26 11:35:57;;;;;;;3.50;0.90;;;;;;;21.92;50.32;100242.22;4918105;29;20088;-89
2022/04/26 11:38:24;;;;;;;3.03;1.25;;;;;;;22.50;47.86;100243.72;4932377;29;20039;-87
2022/04/26 11:40:50;;;;;;;3.35;1.00;;;;;;;22.27;49.10;100238.50;4936640;28;20667;-86
2022/04/26 11:43:17;;;;;;;4.13;1.48;;;;;;;22.15;50.20;100231.28;4924077;29;20040;-87
2022/04/26 11:45:50;;;;;;;3.97;1.30;;;;;;;22.01;50.33;100234.53;4917781;29;20051;-84
2022/04/26 11:48:36;;;;;;;6.53;1.33;;;;;;;21.87;51.22;100231.31;4928283;29;20051;-83
2022/04/26 11:51:03;;;;;;;2.85;0.95;;;;;;;21.81;50.07;100229.56;4932190;29;20388;-84
2022/04/26 11:53:37;;;;;;;10.57;1.38;;;;;;;21.83;50.32;100226.63;4901955;29;20873;-85
2022/04/26 11:56:06;;;;;;;4.93;1.20;;;;;;;21.63;51.84;100227.09;4922461;29;20055;-85
2022/04/26 11:58:37;;;;;;;6.15;3.20;;;;;;;21.58;50.75;100233.19;4925596;29;20032;-87
2022/04/26 12:01:15;;;;;;;3.75;1.13;;;;;;;21.44;50.51;100233.72;4924148;29;20040;-87
2022/04/26 12:03:51;;;;;;;10.90;1.70;;;;;;;21.58;50.28;100230.50;4919230;29;20829;-84
2022/04/26 12:06:28;;;;;;;2.88;1.30;;;;;;;21.41;50.51;100221.53;4918080;29;20033;-84
2022/04/26 12:08:55;;;;;;;7.57;1.38;;;;;;;21.39;51.04;100222.81;4920151;29;20039;-83
2022/04/26 12:11:26;;;;;;;2.90;1.23;;;;;;;21.25;51.72;100216.06;4907607;29;20084;-83
2022/04/26 12:14:13;;;;;;;2.42;1.00;;;;;;;21.19;51.83;100214.34;4920754;29;20210;-84
2022/04/26 12:16:47;;;;;;;4.03;1.23;;;;;;;21.40;51.95;100219.09;4938955;29;20051;-83
2022/04/26 12:19:14;;;;;;;4.25;1.40;;;;;;;21.08;52.54;100207.88;4891044;29;20043;-83
2022/04/26 12:21:59;;;;;;;4.88;1.50;;;;;;;21.17;52.30;100211.06;4921189;29;20040;-84
2022/04/26 12:24:33;;;;;;;3.10;1.10;;;;;;;21.10;53.05;100205.81;4917445;29;20039;-82
2022/04/26 12:27:01;;;;;;;14.52;1.30;;;;;;;20.98;52.58;100213.88;4919260;29;20047;-81
2022/04/26 12:29:28;;;;;;;2.90;0.88;;;;;;;20.94;52.72;100212.72;4916010;29;20106;-83
2022/04/26 12:31:54;;;;;;;5.80;1.23;;;;;;;21.02;52.63;100225.81;4916578;29;20120;-82
2022/04/26 12:34:22;;;;;;;7.88;1.42;;;;;;;20.98;55.29;100213.88;4916897;29;20127;-82
2022/04/26 12:37:07;;;;;;;7.90;2.50;;;;;;;20.93;59.57;100216.47;4901124;29;20112;-84
2022/04/26 12:39:38;;;;;;;8.07;2.78;;;;;;;20.68;62.58;100212.41;4907224;29;20639;-82
2022/04/26 12:42:04;;;;;;;11.52;2.65;;;;;;;20.51;62.87;100215.81;4912451;29;20036;-83
2022/04/26 12:44:30;;;;;;;8.35;3.08;;;;;;;20.27;64.26;100221.41;4917422;29;20029;-82
2022/04/26 12:52:49;;;;;;;14.13;2.67;;;;;;;20.25;62.84;100208.13;4917147;29;20095;-82
2022/04/26 12:55:43;;;;;;;5.38;2.78;;;;;;;20.41;63.05;100201.28;4918659;29;20024;-83
2022/04/26 12:58:14;;;;;;;4.80;2.63;;;;;;;20.41;63.35;100195.91;4827942;29;20051;-90
2022/04/26 13:00:43;;;;;;;7.75;2.63;;;;;;;20.65;62.62;100200.22;4820367;29;20054;-84
2022/04/26 13:03:10;;;;;;;10.13;2.75;;;;;;;20.62;63.43;100198.00;4835088;29;20072;-83
2022/04/26 13:05:54;;;;;;;18.75;3.65;;;;;;;20.39;64.09;100203.38;4823109;29;20072;-83
2022/04/26 13:08:21;;;;;;;9.38;2.70;;;;;;;20.54;63.80;100195.69;4853852;29;20056;-83
2022/04/26 13:10:48;;;;;;;10.57;2.75;;;;;;;20.77;62.40;100201.03;4911110;29;20032;-81
2022/04/26 13:13:15;;;;;;;6.75;1.88;;;;;;;20.89;58.43;100204.53;4912181;29;20055;-83
2022/04/26 13:15:41;;;;;;;6.97;2.72;;;;;;;20.81;60.54;100213.00;4923747;29;20040;-83
2022/04/26 13:18:10;;;;;;;8.88;3.08;;;;;;;20.44;63.31;100206.22;4922854;29;20036;-79
2022/04/26 13:20:36;;;;;;;4.30;1.20;;;;;;;20.28;57.45;100206.91;4921198;29;20060;-82
2022/04/26 13:23:01;;;;;;;3.33;1.20;;;;;;;20.40;56.20;100192.41;4920207;29;20427;-82
2022/04/26 13:25:27;;;;;;;5.25;1.70;;;;;;;20.40;55.79;100196.97;4919566;29;20047;-83
2022/04/26 13:27:56;;;;;;;3.83;1.30;;;;;;;20.48;55.84;100193.94;4903574;29;20381;-83
2022/04/26 13:30:23;;;;;;;7.30;1.55;;;;;;;20.51;54.90;100188.06;4931413;29;20040;-84
2022/04/26 13:32:50;;;;;;;4.57;1.60;;;;;;;20.44;53.99;100195.44;4929859;29;20055;-82
2022/04/26 13:35:15;;;;;;;3.90;1.65;;;;;;;20.43;54.14;100191.09;4927806;29;20024;-84
2022/04/26 13:37:43;;;;;;;6.38;1.60;;;;;;;20.34;53.76;100189.81;4905929;29;20635;-83
2022/04/26 13:40:10;;;;;;;8.05;1.63;;;;;;;20.33;52.90;100182.78;4925157;29;20028;-81
2022/04/26 13:42:36;;;;;;;6.82;1.35;;;;;;;20.37;52.96;100182.09;4919731;29;20484;-82
2022/04/26 13:45:06;;;;;;;5.18;1.83;;;;;;;20.29;52.79;100187.81;4908450;29;20048;-83
2022/04/26 13:47:34;;;;;;;7.13;1.63;;;;;;;20.26;54.10;100187.44;4918122;29;20062;-84
2022/04/26 13:50:00;;;;;;;6.65;2.38;;;;;;;20.18;53.82;100188.63;4925938;29;20412;-85
2022/04/26 13:52:31;;;;;;;5.32;1.63;;;;;;;20.29;54.01;100181.63;4903904;29;20121;-86
2022/04/26 13:54:57;;;;;;;4.05;2.03;;;;;;;20.20;54.00;100183.00;4924108;29;20043;-85
2022/04/26 13:57:25;;;;;;;7.68;1.52;;;;;;;20.22;53.79;100180.91;4923356;29;20040;-86
2022/04/26 13:59:54;;;;;;;2.95;1.33;;;;;;;20.29;53.71;100171.66;4924198;29;20040;-84
2022/04/26 14:02:19;;;;;;;6.03;1.90;;;;;;;20.42;53.95;100174.13;4919353;29;20044;-84
2022/04/26 14:04:47;;;;;;;5.60;1.90;;;;;;;20.52;53.83;100170.84;4919795;29;20039;-83
2022/04/26 14:07:14;;;;;;;7.80;1.73;;;;;;;20.64;53.18;100168.97;4922309;29;20039;-84
2022/04/26 14:09:48;;;;;;;8.77;1.58;;;;;;;20.63;53.09;100168.16;4935515;29;21104;-84
2022/04/26 14:12:18;;;;;;;6.40;1.75;;;;;;;20.69;53.39;100177.16;4942926;29;20027;-85
2022/04/26 14:22:57;;;;;;;15.10;10.57;;;;;;;20.10;76.23;100152.09;4906517;29;20032;-85
2022/04/26 14:25:23;;;;;;;17.65;10.38;;;;;;;19.76;79.36;100155.56;4919948;29;20039;-87
2022/04/26 14:27:50;;;;;;;20.20;10.20;;;;;;;19.49;81.77;100151.63;4923345;29;20083;-86
2022/04/26 14:30:24;;;;;;;13.77;10.32;;;;;;;19.23;83.52;100160.00;4920652;29;20040;-83
2022/04/26 14:32:54;;;;;;;17.83;9.57;;;;;;;19.29;83.57;100162.59;4903086;29;20035;-86
2022/04/26 14:35:20;;;;;;;14.55;9.27;;;;;;;19.16;84.08;100148.56;4918927;29;20534;-85
2022/04/26 14:37:46;;;;;;;24.20;10.68;;;;;;;18.89;86.14;100154.22;4922914;29;20047;-84
2022/04/26 14:40:12;;;;;;;15.93;10.93;;;;;;;18.93;86.94;100147.38;4915667;29;20400;-84
2022/04/26 14:42:38;;;;;;;15.48;10.32;;;;;;;18.82;87.93;100142.78;4896405;29;20411;-82
2022/04/26 14:45:05;;;;;;;19.58;10.88;;;;;;;18.70;88.49;100149.94;4916468;29;20036;-84
2022/04/26 14:47:30;;;;;;;15.18;10.70;;;;;;;18.57;90.17;100144.69;4917062;29;20071;-84
2022/04/26 14:49:59;;;;;;;21.17;11.35;;;;;;;18.54;88.16;100145.16;4911173;29;20076;-83
2022/04/26 14:52:25;;;;;;;15.43;11.48;;;;;;;18.49;87.58;100144.97;4917717;29;20423;-84
2022/04/26 14:54:51;;;;;;;19.10;11.73;;;;;;;18.43;88.69;100145.84;4911310;29;20028;-84
2022/04/26 14:57:21;;;;;;;18.52;12.30;;;;;;;18.33;88.47;100150.91;4901138;29;20040;-85
2022/04/26 14:59:51;;;;;;;15.52;11.13;;;;;;;18.25;90.54;100145.84;4913208;29;20047;-85
2022/04/26 15:02:18;;;;;;;19.02;11.63;;;;;;;18.25;91.04;100143.97;4914769;29;20056;-84
2022/04/26 15:04:45;;;;;;;23.05;11.48;;;;;;;18.20;88.81;100135.75;4915920;29;20542;-85
2022/04/26 15:07:11;;;;;;;20.63;11.82;;;;;;;18.14;90.93;100143.88;4919184;29;20143;-85
2022/04/26 15:09:52;;;;;;;21.15;11.85;;;;;;;18.15;91.58;100140.97;4915217;29;20131;-85
2022/04/26 15:17:50;;;;;;;16.50;10.93;;;;;;;18.13;91.71;100139.56;4922520;29;20036;-84
2022/04/26 15:20:18;;;;;;;13.27;10.73;;;;;;;18.30;89.51;100137.94;4917987;29;20032;-86
2022/04/26 15:22:46;;;;;;;18.80;12.10;;;;;;;18.19;87.96;100146.72;4918530;29;20036;-86
2022/04/26 15:25:35;;;;;;;17.67;10.40;;;;;;;18.16;88.04;100152.53;4902638;29;20031;-84
2022/04/26 15:28:05;;;;;;;17.52;11.70;;;;;;;18.11;88.77;100145.13;4917207;29;20071;-88
2022/04/26 15:30:31;;;;;;;13.10;10.48;;;;;;;18.14;88.47;100146.53;4917427;29;20113;-85
2022/04/26 15:32:58;;;;;;;16.60;10.73;;;;;;;18.30;86.54;100137.94;4922178;29;20051;-85
2022/04/26 15:35:24;;;;;;;16.60;11.07;;;;;;;18.23;86.89;100151.41;4907720;29;20063;-84
2022/04/26 15:37:50;;;;;;;18.10;11.02;;;;;;;18.23;86.82;100150.63;4909950;29;20516;-89
2022/04/26 15:40:15;;;;;;;19.25;11.40;;;;;;;18.15;88.40;100143.66;4906163;29;20036;-89
2022/04/26 15:42:41;;;;;;;18.80;11.68;;;;;;;18.15;87.01;100142.84;4930367;29;20032;-88
2022/04/26 15:45:07;;;;;;;18.63;12.10;;;;;;;18.13;87.95;100142.25;4930358;29;20182;-86
2022/04/26 15:47:33;;;;;;;17.10;11.20;;;;;;;18.26;87.35;100132.19;4929579;29;20039;-88
2022/04/26 15:49:59;;;;;;;18.27;11.68;;;;;;;18.32;86.33;100127.81;4933301;29;20083;-85